Житкур

Карта отелей и гостиниц, располагающихся рядом с аэропортом Житкур :

Житкур Волгоградская область 48° 57' 48.96" N, 46° 18' 13.176" E
Житкур Волгоградская область 48° 57' 48.96" N, 46° 18' 13.176" E
Код аэродрома ИКАО
ZDW5
Код аэродрома RU
ЗДВ5
Координаты
N48.96360° E046.30366°
Превышение над уровнем моря
17
Основная полоса
12/30
Курс магнитный
115,5/295,5
Длина основной ВПП
1060
Ширина основной ВПП
80
Покрытие основной ВПП
Твёрдое
Освещение ВПП
Нет
Тип: 
Аэродром
Класс аэродрома: 
Принадлежность: 
МО
Статус: 
Недействующий
Сайт: 
E-mail аэродрома: 
Страна: 
Россия
Регион: 
Волгоградская область
Город: 
Дополнительная информация: 
Создан в 1942 г для авиационного обеспечения Сталинградской битвы, тогда здесь базировалось до десяти бомбардировочных, штурмовых и истребительных авиаполков. После ВОВ был задействован в системе обеспечения жизнедеятельности космодрома "Капустин Яр".

Найти трансфер

С помощью этой формы Вы можете найти трансфер из аэропорта Житкур в город, аэропорт или вокзал:

Карта места

Javascript is required to view this map.

Погода в аэропортах:

Авиационная погода в Москве - Остафьево

Погода METAR: 
UUMO 051100Z 26001MPS 9999 -SHRA SCT066CB 21/12 Q1017 R25/090060 NOSIG RMK QFE747/0996
Время наблюдения
2021-08-05T11:00:00Z
Температура C
21.0
Точка росы
12.0
Направление ветра
260
Скорость ветра (узлы)
2
Метео видимость
6.21
Явления погоды
-SHRA
Условия полета
VFR
Аэропорт подробнее: 

Авиационная погода в Хомутово

Регион: 
Погода METAR: 
UHSS 051100Z 35004MPS 9000 -SHRA BKN008 BKN012CB 18/18 Q1006 R01/70D NOSIG RMK MT OBSC QFE754/1005
Время наблюдения
2021-08-05T11:00:00Z
Температура C
18.0
Точка росы
18.0
Направление ветра
350
Скорость ветра (узлы)
8
Метео видимость
5.59
Явления погоды
-SHRA
Условия полета
IFR
Аэропорт подробнее: 

Авиационная погода в Оренбурге

Регион: 
Погода METAR: 
UWOO 051100Z 22005MPS 200V260 9999 TS SCT040CB 32/14 Q1009 R26/CLRD65 NOSIG RMK QFE746/0995
Время наблюдения
2021-08-05T11:00:00Z
Температура C
32.0
Точка росы
14.0
Направление ветра
220
Скорость ветра (узлы)
10
Метео видимость
6.21
Явления погоды
TS
Условия полета
VFR
Аэропорт подробнее: 

Авиационная погода в Нижневартовске

Регион: 
Погода METAR: 
USNN 051100Z 36002MPS 320V030 3600 FU BKN026 20/16 Q1010 R03/0///65 NOSIG RMK QFE753
Время наблюдения
2021-08-05T11:00:00Z
Температура C
20.0
Точка росы
16.0
Направление ветра
360
Скорость ветра (узлы)
4
Метео видимость
2.24
Явления погоды
FU
Условия полета
IFR
Аэропорт подробнее: